sensor_id;sensor_type;location;lat;lon;timestamp;pressure;altitude;pressure_sealevel;temperature;humidity
56825;BME280;42705;50.326;18.772;2023-04-10T00:03:30;99311.18;;;7.47;72.74
56825;BME280;42705;50.326;18.772;2023-04-10T00:08:53;99305.92;;;7.47;72.64
56825;BME280;42705;50.326;18.772;2023-04-10T00:14:15;99298.70;;;7.46;72.58
56825;BME280;42705;50.326;18.772;2023-04-10T00:19:43;99294.14;;;7.44;72.66
56825;BME280;42705;50.326;18.772;2023-04-10T00:25:05;99291.53;;;7.44;72.82
56825;BME280;42705;50.326;18.772;2023-04-10T00:30:27;99285.77;;;7.42;72.81
56825;BME280;42705;50.326;18.772;2023-04-10T00:35:49;99280.70;;;7.45;72.78
56825;BME280;42705;50.326;18.772;2023-04-10T00:41:11;99269.17;;;7.38;72.53
56825;BME280;42705;50.326;18.772;2023-04-10T00:46:36;99270.27;;;7.20;72.85
56825;BME280;42705;50.326;18.772;2023-04-10T00:51:58;99274.40;;;7.13;72.84
56825;BME280;42705;50.326;18.772;2023-04-10T00:57:20;99275.08;;;7.13;72.94
56825;BME280;42705;50.326;18.772;2023-04-10T01:02:42;99274.77;;;7.13;73.14
56825;BME280;42705;50.326;18.772;2023-04-10T01:08:20;99277.95;;;7.23;73.39
56825;BME280;42705;50.326;18.772;2023-04-10T01:13:56;99278.02;;;7.35;73.51
56825;BME280;42705;50.326;18.772;2023-04-10T01:30:41;99284.64;;;7.62;73.18
56825;BME280;42705;50.326;18.772;2023-04-10T01:36:05;99284.16;;;7.64;73.24
56825;BME280;42705;50.326;18.772;2023-04-10T01:41:30;99284.42;;;7.65;72.98
56825;BME280;42705;50.326;18.772;2023-04-10T01:46:55;99276.30;;;7.59;72.76
56825;BME280;42705;50.326;18.772;2023-04-10T01:52:19;99267.24;;;7.30;72.65
56825;BME280;42705;50.326;18.772;2023-04-10T01:57:47;99266.66;;;7.06;72.76
56825;BME280;42705;50.326;18.772;2023-04-10T02:03:10;99276.98;;;6.99;73.34
56825;BME280;42705;50.326;18.772;2023-04-10T02:08:42;99286.33;;;7.06;73.82
56825;BME280;42705;50.326;18.772;2023-04-10T02:14:10;99288.08;;;7.19;74.06
56825;BME280;42705;50.326;18.772;2023-04-10T02:19:36;99298.36;;;7.24;74.29
56825;BME280;42705;50.326;18.772;2023-04-10T02:24:59;99305.60;;;7.31;74.35
56825;BME280;42705;50.326;18.772;2023-04-10T02:30:21;99299.91;;;7.38;74.69
56825;BME280;42705;50.326;18.772;2023-04-10T02:35:44;99298.39;;;7.34;74.28
56825;BME280;42705;50.326;18.772;2023-04-10T02:41:06;99293.04;;;7.31;74.71
56825;BME280;42705;50.326;18.772;2023-04-10T02:46:29;99286.48;;;7.28;74.44
56825;BME280;42705;50.326;18.772;2023-04-10T02:51:52;99282.30;;;7.14;74.66
56825;BME280;42705;50.326;18.772;2023-04-10T02:57:15;99281.41;;;7.01;74.84
56825;BME280;42705;50.326;18.772;2023-04-10T03:02:37;99286.45;;;6.92;75.07
56825;BME280;42705;50.326;18.772;2023-04-10T03:08:04;99287.86;;;6.89;75.15
56825;BME280;42705;50.326;18.772;2023-04-10T03:13:26;99291.67;;;6.87;75.57
56825;BME280;42705;50.326;18.772;2023-04-10T03:18:48;99291.84;;;6.87;75.88
56825;BME280;42705;50.326;18.772;2023-04-10T03:24:10;99289.90;;;6.95;76.03
56825;BME280;42705;50.326;18.772;2023-04-10T03:29:32;99293.00;;;7.04;76.24
56825;BME280;42705;50.326;18.772;2023-04-10T03:34:54;99300.57;;;7.14;76.09
56825;BME280;42705;50.326;18.772;2023-04-10T03:40:16;99298.38;;;7.21;76.11
56825;BME280;42705;50.326;18.772;2023-04-10T03:45:38;99295.55;;;7.25;75.98
56825;BME280;42705;50.326;18.772;2023-04-10T03:51:01;99293.65;;;7.24;76.11
56825;BME280;42705;50.326;18.772;2023-04-10T03:56:24;99298.29;;;7.22;76.04
56825;BME280;42705;50.326;18.772;2023-04-10T04:01:46;99303.52;;;7.22;76.18
56825;BME280;42705;50.326;18.772;2023-04-10T04:07:08;99296.07;;;7.25;76.35
56825;BME280;42705;50.326;18.772;2023-04-10T04:12:45;99290.89;;;7.19;76.37
56825;BME280;42705;50.326;18.772;2023-04-10T04:18:30;99285.29;;;7.16;76.35
56825;BME280;42705;50.326;18.772;2023-04-10T04:24:11;99289.33;;;7.10;76.38
56825;BME280;42705;50.326;18.772;2023-04-10T04:29:51;99290.16;;;7.08;76.44
56825;BME280;42705;50.326;18.772;2023-04-10T04:35:20;99299.63;;;7.04;76.60
56825;BME280;42705;50.326;18.772;2023-04-10T04:41:08;99306.35;;;7.10;76.73
56825;BME280;42705;50.326;18.772;2023-04-10T04:46:50;99306.23;;;7.18;76.76
56825;BME280;42705;50.326;18.772;2023-04-10T04:52:11;99302.89;;;7.18;76.70
56825;BME280;42705;50.326;18.772;2023-04-10T04:57:38;99304.13;;;7.12;76.67
56825;BME280;42705;50.326;18.772;2023-04-10T05:03:13;99310.06;;;7.09;76.67
56825;BME280;42705;50.326;18.772;2023-04-10T05:08:58;99320.73;;;7.11;76.71
56825;BME280;42705;50.326;18.772;2023-04-10T05:14:56;99325.86;;;7.15;76.81
56825;BME280;42705;50.326;18.772;2023-04-10T05:20:21;99330.36;;;7.15;76.86
56825;BME280;42705;50.326;18.772;2023-04-10T05:25:58;99333.71;;;7.23;76.88
56825;BME280;42705;50.326;18.772;2023-04-10T05:31:38;99333.80;;;7.22;76.83
56825;BME280;42705;50.326;18.772;2023-04-10T05:37:09;99340.30;;;7.20;76.69
56825;BME280;42705;50.326;18.772;2023-04-10T05:42:38;99341.70;;;7.17;76.47
56825;BME280;42705;50.326;18.772;2023-04-10T05:48:38;99345.58;;;7.14;76.61
56825;BME280;42705;50.326;18.772;2023-04-10T05:54:14;99345.50;;;7.12;76.52
56825;BME280;42705;50.326;18.772;2023-04-10T05:59:43;99348.91;;;7.05;76.58
56825;BME280;42705;50.326;18.772;2023-04-10T06:05:28;99346.55;;;7.04;76.90
56825;BME280;42705;50.326;18.772;2023-04-10T06:10:54;99347.06;;;7.07;76.90
56825;BME280;42705;50.326;18.772;2023-04-10T06:16:16;99350.55;;;7.12;77.15
56825;BME280;42705;50.326;18.772;2023-04-10T06:21:39;99351.30;;;7.22;76.95
56825;BME280;42705;50.326;18.772;2023-04-10T06:27:01;99355.24;;;7.23;76.70
56825;BME280;42705;50.326;18.772;2023-04-10T06:32:23;99359.27;;;7.17;76.83
56825;BME280;42705;50.326;18.772;2023-04-10T06:37:45;99363.36;;;7.21;76.99
56825;BME280;42705;50.326;18.772;2023-04-10T06:43:07;99371.11;;;7.25;76.93
56825;BME280;42705;50.326;18.772;2023-04-10T06:48:32;99371.64;;;7.30;76.77
56825;BME280;42705;50.326;18.772;2023-04-10T06:53:54;99372.55;;;7.32;76.73
56825;BME280;42705;50.326;18.772;2023-04-10T06:59:16;99365.85;;;7.34;76.68
56825;BME280;42705;50.326;18.772;2023-04-10T07:04:38;99372.63;;;7.37;76.80
56825;BME280;42705;50.326;18.772;2023-04-10T07:10:01;99371.61;;;7.42;76.82
56825;BME280;42705;50.326;18.772;2023-04-10T07:15:24;99372.01;;;7.44;76.71
56825;BME280;42705;50.326;18.772;2023-04-10T07:20:46;99367.51;;;7.55;76.87
56825;BME280;42705;50.326;18.772;2023-04-10T07:26:09;99370.47;;;7.63;76.78
56825;BME280;42705;50.326;18.772;2023-04-10T07:31:31;99370.34;;;7.62;76.52
56825;BME280;42705;50.326;18.772;2023-04-10T07:36:52;99368.60;;;7.68;76.72
56825;BME280;42705;50.326;18.772;2023-04-10T07:42:14;99367.08;;;7.73;76.69
56825;BME280;42705;50.326;18.772;2023-04-10T07:47:36;99363.65;;;7.74;76.72
56825;BME280;42705;50.326;18.772;2023-04-10T07:52:58;99353.36;;;7.86;76.54
56825;BME280;42705;50.326;18.772;2023-04-10T07:58:24;99350.70;;;7.95;76.34
56825;BME280;42705;50.326;18.772;2023-04-10T08:03:46;99354.21;;;8.02;76.20
56825;BME280;42705;50.326;18.772;2023-04-10T08:09:08;99351.48;;;8.07;76.28
56825;BME280;42705;50.326;18.772;2023-04-10T08:14:29;99346.70;;;8.16;76.16
56825;BME280;42705;50.326;18.772;2023-04-10T08:19:51;99345.45;;;8.19;75.75
56825;BME280;42705;50.326;18.772;2023-04-10T08:25:13;99346.10;;;8.30;76.00
56825;BME280;42705;50.326;18.772;2023-04-10T08:30:35;99348.80;;;8.44;75.71
56825;BME280;42705;50.326;18.772;2023-04-10T08:35:57;99351.95;;;8.49;75.93
56825;BME280;42705;50.326;18.772;2023-04-10T08:41:19;99350.88;;;8.58;76.00
56825;BME280;42705;50.326;18.772;2023-04-10T08:46:43;99348.73;;;8.66;76.23
56825;BME280;42705;50.326;18.772;2023-04-10T08:52:07;99351.50;;;8.74;75.93
56825;BME280;42705;50.326;18.772;2023-04-10T08:57:30;99357.63;;;8.81;75.53
56825;BME280;42705;50.326;18.772;2023-04-10T09:02:53;99362.23;;;8.93;75.25
56825;BME280;42705;50.326;18.772;2023-04-10T09:08:18;99362.83;;;9.07;75.53
56825;BME280;42705;50.326;18.772;2023-04-10T09:13:42;99365.80;;;9.17;75.00
56825;BME280;42705;50.326;18.772;2023-04-10T09:19:07;99367.51;;;9.20;74.95
56825;BME280;42705;50.326;18.772;2023-04-10T09:24:29;99361.66;;;9.11;75.03
56825;BME280;42705;50.326;18.772;2023-04-10T09:29:51;99354.11;;;9.15;74.83
56825;BME280;42705;50.326;18.772;2023-04-10T09:35:14;99357.02;;;9.22;74.94
56825;BME280;42705;50.326;18.772;2023-04-10T09:40:36;99356.80;;;9.26;74.41
56825;BME280;42705;50.326;18.772;2023-04-10T09:45:58;99352.39;;;9.32;74.58
56825;BME280;42705;50.326;18.772;2023-04-10T09:51:49;99346.46;;;9.39;74.52
56825;BME280;42705;50.326;18.772;2023-04-10T09:57:16;99339.16;;;9.48;75.00
56825;BME280;42705;50.326;18.772;2023-04-10T10:02:40;99329.52;;;9.61;74.47
56825;BME280;42705;50.326;18.772;2023-04-10T10:08:02;99326.59;;;9.73;74.29
56825;BME280;42705;50.326;18.772;2023-04-10T10:13:35;99315.67;;;9.98;74.39
56825;BME280;42705;50.326;18.772;2023-04-10T10:19:12;99311.63;;;10.41;73.96
56825;BME280;42705;50.326;18.772;2023-04-10T10:24:38;99297.20;;;10.90;73.43
56825;BME280;42705;50.326;18.772;2023-04-10T10:30:08;99291.21;;;11.32;73.23
56825;BME280;42705;50.326;18.772;2023-04-10T10:35:36;99291.89;;;11.65;72.73
56825;BME280;42705;50.326;18.772;2023-04-10T10:41:31;99287.64;;;11.98;72.11
56825;BME280;42705;50.326;18.772;2023-04-10T10:47:16;99278.91;;;12.21;71.46
56825;BME280;42705;50.326;18.772;2023-04-10T10:52:47;99277.98;;;12.20;70.90
56825;BME280;42705;50.326;18.772;2023-04-10T10:58:13;99276.50;;;12.16;70.72
56825;BME280;42705;50.326;18.772;2023-04-10T11:03:38;99280.64;;;12.07;70.71
56825;BME280;42705;50.326;18.772;2023-04-10T11:09:00;99274.91;;;11.99;70.23
56825;BME280;42705;50.326;18.772;2023-04-10T11:14:23;99271.27;;;11.90;69.99
56825;BME280;42705;50.326;18.772;2023-04-10T11:20:00;99265.94;;;11.87;69.96
56825;BME280;42705;50.326;18.772;2023-04-10T11:25:52;99268.39;;;11.79;69.55
56825;BME280;42705;50.326;18.772;2023-04-10T11:31:16;99258.98;;;11.71;69.30
56825;BME280;42705;50.326;18.772;2023-04-10T11:36:41;99253.17;;;11.70;69.08
56825;BME280;42705;50.326;18.772;2023-04-10T11:42:03;99243.73;;;11.74;68.82
56825;BME280;42705;50.326;18.772;2023-04-10T11:47:26;99236.91;;;11.83;68.66
56825;BME280;42705;50.326;18.772;2023-04-10T11:52:49;99223.70;;;11.96;68.37
56825;BME280;42705;50.326;18.772;2023-04-10T11:58:24;99215.14;;;12.52;67.79
56825;BME280;42705;50.326;18.772;2023-04-10T12:03:47;99209.40;;;13.15;67.11
56825;BME280;42705;50.326;18.772;2023-04-10T12:09:14;99204.83;;;13.67;66.30
56825;BME280;42705;50.326;18.772;2023-04-10T12:14:40;99197.68;;;14.14;65.66
56825;BME280;42705;50.326;18.772;2023-04-10T12:20:05;99183.16;;;14.43;64.82
56825;BME280;42705;50.326;18.772;2023-04-10T12:25:29;99178.23;;;14.91;64.17
56825;BME280;42705;50.326;18.772;2023-04-10T12:30:51;99174.74;;;15.41;63.35
56825;BME280;42705;50.326;18.772;2023-04-10T12:36:24;99167.80;;;15.58;62.92
56825;BME280;42705;50.326;18.772;2023-04-10T12:42:21;99163.31;;;15.43;62.33
56825;BME280;42705;50.326;18.772;2023-04-10T12:53:06;99149.52;;;16.36;60.77
56825;BME280;42705;50.326;18.772;2023-04-10T12:58:30;99141.30;;;17.80;59.30
56825;BME280;42705;50.326;18.772;2023-04-10T13:03:52;99129.36;;;18.93;56.71
56825;BME280;42705;50.326;18.772;2023-04-10T13:09:14;99118.10;;;20.06;54.91
56825;BME280;42705;50.326;18.772;2023-04-10T13:14:38;99111.30;;;23.79;49.46
56825;BME280;42705;50.326;18.772;2023-04-10T13:19:59;99090.83;;;27.14;45.58
56825;BME280;42705;50.326;18.772;2023-04-10T13:25:21;99082.63;;;29.72;42.18
56825;BME280;42705;50.326;18.772;2023-04-10T13:30:43;99077.00;;;29.95;40.76
56825;BME280;42705;50.326;18.772;2023-04-10T13:36:06;99067.98;;;29.88;38.81
56825;BME280;42705;50.326;18.772;2023-04-10T13:41:28;99055.66;;;31.10;36.30
56825;BME280;42705;50.326;18.772;2023-04-10T13:46:50;99052.98;;;32.65;34.46
56825;BME280;42705;50.326;18.772;2023-04-10T13:52:12;99047.61;;;33.92;32.79
56825;BME280;42705;50.326;18.772;2023-04-10T13:57:34;99041.59;;;35.24;31.29
56825;BME280;42705;50.326;18.772;2023-04-10T14:02:56;99026.66;;;35.77;29.35
56825;BME280;42705;50.326;18.772;2023-04-10T14:08:18;99020.48;;;35.53;28.60
56825;BME280;42705;50.326;18.772;2023-04-10T14:13:40;99012.73;;;35.63;27.53
56825;BME280;42705;50.326;18.772;2023-04-10T14:19:02;99009.17;;;35.38;26.94
56825;BME280;42705;50.326;18.772;2023-04-10T14:24:24;99001.71;;;34.99;26.52
56825;BME280;42705;50.326;18.772;2023-04-10T14:29:46;98995.27;;;34.49;26.37
56825;BME280;42705;50.326;18.772;2023-04-10T14:35:09;98986.52;;;33.63;26.47
56825;BME280;42705;50.326;18.772;2023-04-10T14:40:32;98976.75;;;32.76;26.41
56825;BME280;42705;50.326;18.772;2023-04-10T14:45:54;98969.45;;;31.81;26.68
56825;BME280;42705;50.326;18.772;2023-04-10T14:51:15;98968.94;;;31.39;26.92
56825;BME280;42705;50.326;18.772;2023-04-10T14:56:37;98968.30;;;30.15;27.66
56825;BME280;42705;50.326;18.772;2023-04-10T15:01:59;98962.05;;;29.40;28.12
56825;BME280;42705;50.326;18.772;2023-04-10T15:07:21;98959.65;;;29.24;28.31
56825;BME280;42705;50.326;18.772;2023-04-10T15:12:44;98953.16;;;28.83;28.56
56825;BME280;42705;50.326;18.772;2023-04-10T15:18:06;98955.95;;;28.77;28.92
56825;BME280;42705;50.326;18.772;2023-04-10T15:23:28;98952.70;;;28.55;29.22
56825;BME280;42705;50.326;18.772;2023-04-10T15:28:51;98941.13;;;27.91;29.31
56825;BME280;42705;50.326;18.772;2023-04-10T15:34:13;98939.23;;;27.39;29.59
56825;BME280;42705;50.326;18.772;2023-04-10T15:39:35;98934.91;;;26.89;30.10
56825;BME280;42705;50.326;18.772;2023-04-10T15:44:57;98925.02;;;26.19;30.53
56825;BME280;42705;50.326;18.772;2023-04-10T15:50:19;98927.70;;;26.02;31.05
56825;BME280;42705;50.326;18.772;2023-04-10T15:55:41;98931.60;;;26.24;31.00
56825;BME280;42705;50.326;18.772;2023-04-10T16:01:05;98923.98;;;26.01;31.01
56825;BME280;42705;50.326;18.772;2023-04-10T16:06:27;98918.78;;;25.38;31.35
56825;BME280;42705;50.326;18.772;2023-04-10T16:11:50;98921.95;;;24.79;32.09
56825;BME280;42705;50.326;18.772;2023-04-10T16:17:12;98918.05;;;24.34;32.44
56825;BME280;42705;50.326;18.772;2023-04-10T16:22:34;98909.30;;;23.66;32.97
56825;BME280;42705;50.326;18.772;2023-04-10T16:27:57;98903.55;;;22.69;33.68
56825;BME280;42705;50.326;18.772;2023-04-10T16:33:19;98902.14;;;21.92;34.67
56825;BME280;42705;50.326;18.772;2023-04-10T16:38:42;98898.89;;;21.22;35.54
56825;BME280;42705;50.326;18.772;2023-04-10T16:44:05;98904.45;;;20.53;36.40
56825;BME280;42705;50.326;18.772;2023-04-10T16:49:28;98902.85;;;20.06;37.40
56825;BME280;42705;50.326;18.772;2023-04-10T16:54:50;98904.02;;;19.70;38.00
56825;BME280;42705;50.326;18.772;2023-04-10T17:00:13;98907.76;;;19.03;38.80
56825;BME280;42705;50.326;18.772;2023-04-10T17:05:36;98908.91;;;18.37;39.74
56825;BME280;42705;50.326;18.772;2023-04-10T17:10:58;98914.83;;;17.97;40.88
56825;BME280;42705;50.326;18.772;2023-04-10T17:16:20;98931.67;;;17.58;41.92
56825;BME280;42705;50.326;18.772;2023-04-10T17:21:44;98942.48;;;17.24;43.15
56825;BME280;42705;50.326;18.772;2023-04-10T17:27:06;98938.83;;;16.84;44.33
56825;BME280;42705;50.326;18.772;2023-04-10T17:32:28;98932.77;;;16.42;45.33
56825;BME280;42705;50.326;18.772;2023-04-10T17:37:51;98919.52;;;15.47;46.07
56825;BME280;42705;50.326;18.772;2023-04-10T17:43:13;98905.96;;;14.40;47.67
56825;BME280;42705;50.326;18.772;2023-04-10T17:48:36;98907.60;;;13.41;49.57
56825;BME280;42705;50.326;18.772;2023-04-10T17:54:00;98922.71;;;12.79;51.34
56825;BME280;42705;50.326;18.772;2023-04-10T17:59:22;98925.73;;;12.38;52.87
56825;BME280;42705;50.326;18.772;2023-04-10T18:04:44;98923.56;;;12.12;53.97
56825;BME280;42705;50.326;18.772;2023-04-10T18:10:08;98925.90;;;11.99;54.92
56825;BME280;42705;50.326;18.772;2023-04-10T18:15:30;98924.91;;;11.88;55.70
56825;BME280;42705;50.326;18.772;2023-04-10T18:20:52;98926.08;;;11.69;56.24
56825;BME280;42705;50.326;18.772;2023-04-10T18:26:14;98927.23;;;11.58;57.24
56825;BME280;42705;50.326;18.772;2023-04-10T18:31:36;98924.73;;;11.54;57.79
56825;BME280;42705;50.326;18.772;2023-04-10T18:36:59;98917.95;;;11.44;58.28
56825;BME280;42705;50.326;18.772;2023-04-10T18:42:22;98916.98;;;11.39;58.69
56825;BME280;42705;50.326;18.772;2023-04-10T18:47:45;98910.07;;;11.38;59.00
56825;BME280;42705;50.326;18.772;2023-04-10T18:53:07;98906.61;;;11.35;59.43
56825;BME280;42705;50.326;18.772;2023-04-10T18:58:30;98902.02;;;11.34;59.52
56825;BME280;42705;50.326;18.772;2023-04-10T19:03:54;98896.79;;;11.25;59.58
56825;BME280;42705;50.326;18.772;2023-04-10T19:09:17;98890.61;;;11.10;60.08
56825;BME280;42705;50.326;18.772;2023-04-10T19:14:39;98888.40;;;10.98;60.27
56825;BME280;42705;50.326;18.772;2023-04-10T19:20:03;98887.70;;;10.96;60.59
56825;BME280;42705;50.326;18.772;2023-04-10T19:25:25;98883.80;;;10.99;60.65
56825;BME280;42705;50.326;18.772;2023-04-10T19:30:51;98883.48;;;10.99;60.98
56825;BME280;42705;50.326;18.772;2023-04-10T19:36:16;98884.34;;;10.99;60.76
56825;BME280;42705;50.326;18.772;2023-04-10T19:41:40;98888.16;;;11.06;60.99
56825;BME280;42705;50.326;18.772;2023-04-10T19:47:04;98886.41;;;11.16;61.30
56825;BME280;42705;50.326;18.772;2023-04-10T19:52:28;98880.76;;;11.25;61.41
56825;BME280;42705;50.326;18.772;2023-04-10T19:57:51;98875.73;;;11.28;61.67
56825;BME280;42705;50.326;18.772;2023-04-10T20:03:13;98875.66;;;11.35;61.69
56825;BME280;42705;50.326;18.772;2023-04-10T20:08:36;98868.85;;;11.41;62.00
56825;BME280;42705;50.326;18.772;2023-04-10T20:13:58;98866.90;;;11.43;62.10
56825;BME280;42705;50.326;18.772;2023-04-10T20:19:20;98867.17;;;11.34;62.20
56825;BME280;42705;50.326;18.772;2023-04-10T20:24:42;98863.75;;;11.29;62.38
56825;BME280;42705;50.326;18.772;2023-04-10T20:30:05;98858.19;;;11.25;62.33
56825;BME280;42705;50.326;18.772;2023-04-10T20:35:28;98852.04;;;11.17;62.58
56825;BME280;42705;50.326;18.772;2023-04-10T20:40:50;98848.56;;;10.99;62.56
56825;BME280;42705;50.326;18.772;2023-04-10T20:46:12;98841.53;;;10.76;63.00
56825;BME280;42705;50.326;18.772;2023-04-10T20:51:35;98835.88;;;10.65;63.22
56825;BME280;42705;50.326;18.772;2023-04-10T20:56:59;98831.56;;;10.45;63.18
56825;BME280;42705;50.326;18.772;2023-04-10T21:02:22;98822.73;;;10.11;63.21
56825;BME280;42705;50.326;18.772;2023-04-10T21:07:44;98816.53;;;9.67;64.42
56825;BME280;42705;50.326;18.772;2023-04-10T21:13:06;98808.27;;;9.28;65.09
56825;BME280;42705;50.326;18.772;2023-04-10T21:18:28;98803.54;;;9.11;65.83
56825;BME280;42705;50.326;18.772;2023-04-10T21:23:50;98804.21;;;9.07;66.31
56825;BME280;42705;50.326;18.772;2023-04-10T21:29:12;98807.51;;;9.05;66.62
56825;BME280;42705;50.326;18.772;2023-04-10T21:34:33;98809.41;;;9.12;67.14
56825;BME280;42705;50.326;18.772;2023-04-10T21:39:55;98801.27;;;9.18;67.31
56825;BME280;42705;50.326;18.772;2023-04-10T21:45:17;98790.98;;;9.20;67.23
56825;BME280;42705;50.326;18.772;2023-04-10T21:50:40;98783.57;;;9.15;67.37
56825;BME280;42705;50.326;18.772;2023-04-10T21:56:02;98781.27;;;9.13;67.54
56825;BME280;42705;50.326;18.772;2023-04-10T22:01:23;98773.44;;;9.08;67.50
56825;BME280;42705;50.326;18.772;2023-04-10T22:06:45;98773.77;;;8.97;67.69
56825;BME280;42705;50.326;18.772;2023-04-10T22:12:07;98764.98;;;8.74;67.65
56825;BME280;42705;50.326;18.772;2023-04-10T22:17:29;98762.58;;;8.53;68.02
56825;BME280;42705;50.326;18.772;2023-04-10T22:22:51;98752.72;;;8.43;68.75
56825;BME280;42705;50.326;18.772;2023-04-10T22:28:13;98743.09;;;8.51;69.26
56825;BME280;42705;50.326;18.772;2023-04-10T22:33:34;98733.38;;;8.64;69.34
56825;BME280;42705;50.326;18.772;2023-04-10T22:38:58;98729.05;;;8.68;69.27
56825;BME280;42705;50.326;18.772;2023-04-10T22:44:20;98722.33;;;8.60;69.40
56825;BME280;42705;50.326;18.772;2023-04-10T22:49:42;98713.30;;;8.58;69.43
56825;BME280;42705;50.326;18.772;2023-04-10T22:55:04;98706.33;;;8.51;69.37
56825;BME280;42705;50.326;18.772;2023-04-10T23:00:27;98698.47;;;8.44;70.04
56825;BME280;42705;50.326;18.772;2023-04-10T23:05:50;98686.60;;;8.47;70.29
56825;BME280;42705;50.326;18.772;2023-04-10T23:11:12;98679.73;;;8.50;70.25
56825;BME280;42705;50.326;18.772;2023-04-10T23:16:34;98674.80;;;8.51;70.26
56825;BME280;42705;50.326;18.772;2023-04-10T23:21:55;98665.42;;;8.60;69.91
56825;BME280;42705;50.326;18.772;2023-04-10T23:27:17;98664.70;;;8.69;69.85
56825;BME280;42705;50.326;18.772;2023-04-10T23:32:39;98655.88;;;8.73;69.58
56825;BME280;42705;50.326;18.772;2023-04-10T23:38:01;98645.85;;;8.70;69.56
56825;BME280;42705;50.326;18.772;2023-04-10T23:43:23;98639.77;;;8.69;69.68
56825;BME280;42705;50.326;18.772;2023-04-10T23:48:45;98630.73;;;8.67;69.58
56825;BME280;42705;50.326;18.772;2023-04-10T23:54:06;98626.73;;;8.65;69.69
56825;BME280;42705;50.326;18.772;2023-04-10T23:59:28;98618.16;;;8.67;69.62
